Time;durP1;ratioP1;P1;durP2;ratioP2;P2;SDS_P1;SDS_P2;PMS_P1;PMS_P2;Temp;Humidity;BMP_temperature;BMP_pressure;BME280_temperature;BME280_humidity;BME280_pressure;Samples;Min_cycle;Max_cycle;Signal;HPM_P1;HPM_P2
2023/07/24 00:00:08;;;;;;;0.30;0.30;;;;;;;19.31;59.39;96227.53;29395;252;63021;-54
2023/07/24 00:00:40;;;;;;;0.30;0.30;;;;;;;19.29;59.81;96235.37;29394;224;64005;-55
2023/07/24 00:01:11;;;;;;;0.20;0.20;;;;;;;19.27;59.96;96229.44;29395;285;63009;-55
2023/07/24 00:01:42;;;;;;;0.30;0.30;;;;;;;19.24;61.60;96228.19;29394;222;64005;-56
2023/07/24 00:02:17;;;;;;;0.30;0.30;;;;;;;19.22;61.91;96227.78;29395;415;63009;-55
2023/07/24 00:02:48;;;;;;;0.30;0.30;;;;;;;19.18;63.48;96232.41;29395;252;63004;-55
2023/07/24 00:03:19;;;;;;;0.30;0.30;;;;;;;19.16;61.73;96220.97;29395;381;63009;-55
2023/07/24 00:03:51;;;;;;;0.30;0.30;;;;;;;19.15;61.92;96222.13;29395;284;63000;-53
2023/07/24 00:04:22;;;;;;;0.30;0.30;;;;;;;19.13;63.04;96224.44;29395;217;63008;-55
2023/07/24 00:04:54;;;;;;;0.30;0.30;;;;;;;19.11;62.99;96231.47;29395;244;63004;-54
2023/07/24 00:05:26;;;;;;;0.30;0.30;;;;;;;19.09;62.11;96229.88;29395;278;63009;-55
2023/07/24 00:05:59;;;;;;;0.30;0.30;;;;;;;19.08;61.91;96236.53;29394;199;64005;-55
2023/07/24 00:06:30;;;;;;;0.30;0.30;;;;;;;19.08;61.39;96227.47;29395;283;63016;-61
2023/07/24 00:07:02;;;;;;;0.30;0.30;;;;;;;19.07;61.76;96240.44;29395;281;63011;-56
2023/07/24 00:07:33;;;;;;;0.30;0.30;;;;;;;19.06;61.33;96236.09;29395;325;63015;-61
2023/07/24 00:08:05;;;;;;;0.30;0.30;;;;;;;19.06;61.87;96240.81;29395;197;63007;-54
2023/07/24 00:08:37;;;;;;;0.30;0.30;;;;;;;19.04;61.48;96248.66;29395;216;63012;-55
2023/07/24 00:09:09;;;;;;;0.30;0.30;;;;;;;19.03;61.38;96245.09;29395;281;63005;-56
2023/07/24 00:09:40;;;;;;;0.30;0.30;;;;;;;19.05;61.41;96244.75;29395;270;63015;-56
2023/07/24 00:10:11;;;;;;;0.30;0.30;;;;;;;19.05;61.76;96250.25;29395;233;63004;-55
2023/07/24 00:10:43;;;;;;;0.30;0.30;;;;;;;19.02;61.91;96253.72;29394;257;64009;-61
2023/07/24 00:11:14;;;;;;;0.30;0.30;;;;;;;18.99;62.16;96260.72;29395;196;63004;-54
2023/07/24 00:11:45;;;;;;;0.30;0.30;;;;;;;18.97;62.03;96265.00;29395;202;63009;-54
2023/07/24 00:12:16;;;;;;;0.30;0.30;;;;;;;18.98;61.75;96259.13;29395;224;63004;-54
2023/07/24 00:12:48;;;;;;;0.30;0.30;;;;;;;18.99;62.28;96268.19;29394;306;64009;-60
2023/07/24 00:13:19;;;;;;;0.30;0.30;;;;;;;19.02;61.94;96268.25;29395;359;63001;-53
2023/07/24 00:13:50;;;;;;;0.30;0.30;;;;;;;19.04;62.47;96267.88;29395;204;63009;-55
2023/07/24 00:14:22;;;;;;;0.30;0.30;;;;;;;19.02;62.61;96264.72;29395;235;63005;-54
2023/07/24 00:14:53;;;;;;;0.30;0.30;;;;;;;19.00;62.90;96267.03;29395;199;63009;-53
2023/07/24 00:15:24;;;;;;;0.30;0.30;;;;;;;18.96;64.03;96261.44;29394;295;64005;-55
2023/07/24 00:15:57;;;;;;;0.30;0.30;;;;;;;18.92;62.69;96238.59;29395;216;63009;-63
2023/07/24 00:16:28;;;;;;;0.30;0.30;;;;;;;18.93;62.92;96234.69;29395;279;63005;-55
2023/07/24 00:16:59;;;;;;;0.30;0.30;;;;;;;18.91;63.20;96220.50;29395;206;63009;-54
2023/07/24 00:17:31;;;;;;;0.30;0.30;;;;;;;18.91;62.96;96219.69;29395;231;63000;-53
2023/07/24 00:18:04;;;;;;;0.30;0.30;;;;;;;18.89;63.88;96227.53;29395;282;63009;-54
2023/07/24 00:18:35;;;;;;;0.30;0.30;;;;;;;18.86;63.32;96233.72;29395;348;63009;-53
2023/07/24 00:19:06;;;;;;;0.30;0.30;;;;;;;18.85;63.25;96243.13;29394;220;64009;-54
2023/07/24 00:19:37;;;;;;;0.30;0.30;;;;;;;18.84;63.00;96247.84;29395;210;63004;-54
2023/07/24 00:20:10;;;;;;;0.30;0.30;;;;;;;18.83;65.20;96262.75;29395;272;63008;-55
2023/07/24 00:20:44;;;;;;;0.30;0.30;;;;;;;18.82;68.10;96276.84;29395;259;63009;-54
2023/07/24 00:21:15;;;;;;;0.30;0.30;;;;;;;18.77;69.59;96268.88;29395;296;63009;-54
2023/07/24 00:21:46;;;;;;;0.30;0.30;;;;;;;18.70;69.25;96253.84;29395;347;63005;-53
2023/07/24 00:22:18;;;;;;;0.40;0.40;;;;;;;18.66;68.88;96252.97;29395;253;63018;-53
2023/07/24 00:22:49;;;;;;;0.30;0.30;;;;;;;18.63;67.96;96237.22;29395;212;63005;-54
2023/07/24 00:23:20;;;;;;;0.30;0.30;;;;;;;18.63;67.11;96225.44;29395;228;63009;-54
2023/07/24 00:23:55;;;;;;;0.30;0.30;;;;;;;18.63;66.65;96215.22;29394;259;64004;-53
2023/07/24 00:24:26;;;;;;;0.30;0.30;;;;;;;18.64;66.05;96207.78;29395;299;63018;-54
2023/07/24 00:24:58;;;;;;;0.30;0.30;;;;;;;18.60;66.78;96204.97;29395;204;63000;-54
2023/07/24 00:25:29;;;;;;;0.30;0.30;;;;;;;18.57;67.84;96208.41;29395;287;63017;-54
2023/07/24 00:26:00;;;;;;;0.30;0.30;;;;;;;18.53;68.80;96204.78;29395;250;63004;-54
2023/07/24 00:26:33;;;;;;;0.30;0.30;;;;;;;18.49;68.85;96198.41;29395;202;63008;-54
2023/07/24 00:27:05;;;;;;;0.30;0.30;;;;;;;18.45;68.91;96207.72;29395;276;63004;-54
2023/07/24 00:27:36;;;;;;;0.30;0.30;;;;;;;18.43;71.33;96210.84;29395;280;63008;-54
2023/07/24 00:28:07;;;;;;;0.30;0.30;;;;;;;18.39;73.07;96208.00;29395;214;63005;-54
2023/07/24 00:28:38;;;;;;;0.30;0.30;;;;;;;18.34;73.70;96213.00;29395;288;63009;-60
2023/07/24 00:29:10;;;;;;;0.30;0.30;;;;;;;18.26;74.00;96212.03;29394;213;64005;-54
2023/07/24 00:29:41;;;;;;;0.30;0.30;;;;;;;18.27;71.15;96210.09;29395;199;63009;-54
2023/07/24 00:30:13;;;;;;;0.30;0.30;;;;;;;18.26;72.74;96222.25;29394;213;64005;-54
2023/07/24 00:30:44;;;;;;;0.30;0.30;;;;;;;18.23;72.93;96211.97;29395;213;63009;-54
2023/07/24 00:31:15;;;;;;;0.30;0.30;;;;;;;18.16;73.34;96206.31;29395;218;63004;-54
2023/07/24 00:31:46;;;;;;;0.35;0.35;;;;;;;18.09;74.59;96205.00;29395;210;63009;-53
2023/07/24 00:32:18;;;;;;;0.30;0.30;;;;;;;17.99;76.09;96211.06;29395;226;63010;-53
2023/07/24 00:32:49;;;;;;;0.30;0.30;;;;;;;17.98;73.93;96201.22;29395;199;63009;-53
2023/07/24 00:33:21;;;;;;;0.30;0.30;;;;;;;18.00;73.60;96193.44;29395;243;63004;-53
2023/07/24 00:33:52;;;;;;;0.30;0.30;;;;;;;18.02;73.04;96202.06;29395;248;63008;-54
2023/07/24 00:34:23;;;;;;;0.30;0.30;;;;;;;18.01;72.58;96186.78;29395;203;63004;-54
2023/07/24 00:34:56;;;;;;;0.30;0.30;;;;;;;18.01;72.83;96195.03;29395;235;63020;-53
2023/07/24 00:35:28;;;;;;;0.30;0.30;;;;;;;17.99;73.28;96191.84;29394;219;64005;-53
2023/07/24 00:35:59;;;;;;;0.30;0.30;;;;;;;18.01;73.11;96188.75;29395;198;63018;-53
2023/07/24 00:36:30;;;;;;;0.30;0.30;;;;;;;18.00;74.74;96189.87;29395;209;63005;-53
2023/07/24 00:37:02;;;;;;;0.30;0.30;;;;;;;17.98;73.37;96190.25;29395;243;63009;-53
2023/07/24 00:37:33;;;;;;;0.37;0.37;;;;;;;17.97;73.63;96188.66;29395;301;63005;-53
2023/07/24 00:38:04;;;;;;;0.30;0.30;;;;;;;17.97;73.48;96194.16;29395;198;63009;-53
2023/07/24 00:38:36;;;;;;;0.30;0.30;;;;;;;17.97;73.34;96185.91;29395;223;63005;-54
2023/07/24 00:39:10;;;;;;;0.30;0.30;;;;;;;17.98;73.68;96179.28;29395;236;63009;-53
2023/07/24 00:39:42;;;;;;;0.30;0.30;;;;;;;17.98;73.08;96183.97;29395;216;63004;-53
2023/07/24 00:40:13;;;;;;;0.30;0.30;;;;;;;17.96;73.12;96173.34;29395;230;63009;-53
2023/07/24 00:40:44;;;;;;;0.35;0.35;;;;;;;17.96;72.78;96173.34;29394;202;63994;-53
2023/07/24 00:41:15;;;;;;;1.10;1.10;;;;;;;17.95;72.34;96163.50;29394;217;64008;-53
2023/07/24 00:41:47;;;;;;;0.30;0.30;;;;;;;17.96;72.41;96167.06;29395;210;63004;-54
2023/07/24 00:42:18;;;;;;;0.30;0.30;;;;;;;17.95;72.31;96173.69;29395;216;63009;-62
2023/07/24 00:42:50;;;;;;;0.30;0.30;;;;;;;17.95;72.20;96174.50;29395;230;63005;-53
2023/07/24 00:43:21;;;;;;;0.30;0.30;;;;;;;17.95;72.12;96174.50;29394;239;64009;-53
2023/07/24 00:43:52;;;;;;;0.30;0.30;;;;;;;17.91;72.58;96162.63;29395;243;63005;-53
2023/07/24 00:44:24;;;;;;;0.30;0.30;;;;;;;17.89;71.87;96167.69;29395;237;63005;-53
2023/07/24 00:44:55;;;;;;;0.30;0.30;;;;;;;17.87;71.86;96169.97;29395;244;63010;-53
2023/07/24 00:45:26;;;;;;;0.30;0.30;;;;;;;17.87;71.83;96161.75;29394;226;64009;-53
2023/07/24 00:45:58;;;;;;;0.30;0.30;;;;;;;17.86;72.73;96171.12;29395;275;63005;-53
2023/07/24 00:46:32;;;;;;;0.30;0.30;;;;;;;17.85;73.15;96158.56;29395;218;63009;-53
2023/07/24 00:47:06;;;;;;;0.30;0.30;;;;;;;17.84;74.12;96167.16;29395;227;63016;-61
2023/07/24 00:47:37;;;;;;;0.30;0.30;;;;;;;17.80;74.81;96167.06;29395;214;63009;-53
2023/07/24 00:48:08;;;;;;;0.40;0.40;;;;;;;17.78;76.55;96169.38;29395;202;63004;-53
2023/07/24 00:48:40;;;;;;;0.30;0.30;;;;;;;17.75;77.05;96170.88;29395;229;63009;-54
2023/07/24 00:49:13;;;;;;;0.40;0.40;;;;;;;17.73;77.54;96172.38;29395;239;63004;-53
2023/07/24 00:49:45;;;;;;;0.40;0.40;;;;;;;17.71;78.84;96174.69;29395;212;63009;-53
2023/07/24 00:50:17;;;;;;;0.40;0.40;;;;;;;17.68;78.62;96175.41;29394;284;64005;-53
2023/07/24 00:50:49;;;;;;;0.30;0.30;;;;;;;17.65;78.01;96174.19;29395;292;63009;-53
2023/07/24 00:51:20;;;;;;;0.30;0.30;;;;;;;17.65;78.91;96176.13;29395;229;63005;-53
2023/07/24 00:51:53;;;;;;;0.30;0.30;;;;;;;17.62;79.21;96176.81;29395;227;63009;-54
2023/07/24 00:52:25;;;;;;;0.40;0.40;;;;;;;17.60;78.95;96174.44;29395;281;63005;-54
2023/07/24 00:52:58;;;;;;;0.40;0.40;;;;;;;17.59;80.33;96167.34;29395;200;63009;-54
2023/07/24 00:53:29;;;;;;;0.30;0.30;;;;;;;17.57;79.92;96175.13;29395;251;63005;-54
2023/07/24 00:54:03;;;;;;;0.40;0.40;;;;;;;17.56;79.53;96179.03;29395;209;63009;-54
2023/07/24 00:54:35;;;;;;;0.30;0.30;;;;;;;17.55;80.21;96171.16;29394;227;63992;-63
2023/07/24 00:55:07;;;;;;;0.30;0.30;;;;;;;17.54;78.46;96180.53;29395;245;63009;-54
2023/07/24 00:55:39;;;;;;;0.30;0.30;;;;;;;17.56;77.92;96180.97;29395;239;63004;-54
2023/07/24 00:56:11;;;;;;;0.30;0.30;;;;;;;17.58;77.61;96181.41;29395;252;63009;-53
2023/07/24 00:56:43;;;;;;;0.30;0.30;;;;;;;17.61;77.35;96175.22;29395;236;63004;-53
2023/07/24 00:57:15;;;;;;;0.30;0.30;;;;;;;17.65;77.23;96170.66;29395;237;63009;-53
2023/07/24 00:57:47;;;;;;;0.40;0.40;;;;;;;17.66;76.62;96169.50;29395;199;63005;-52
2023/07/24 00:58:19;;;;;;;0.37;0.37;;;;;;;17.66;76.19;96162.06;29395;264;63009;-55
2023/07/24 00:58:52;;;;;;;0.30;0.30;;;;;;;17.67;76.92;96168.34;29395;216;63008;-54
2023/07/24 00:59:23;;;;;;;0.30;0.30;;;;;;;17.63;77.70;96168.22;29395;287;63009;-54
2023/07/24 00:59:55;;;;;;;0.30;0.30;;;;;;;17.62;76.49;96165.84;29394;212;64005;-54
2023/07/24 01:00:27;;;;;;;0.40;0.40;;;;;;;17.65;77.03;96167.91;29394;257;64009;-54
2023/07/24 01:00:59;;;;;;;0.30;0.30;;;;;;;17.65;77.31;96159.69;29395;202;63005;-54
2023/07/24 01:01:30;;;;;;;0.30;0.30;;;;;;;17.65;76.40;96155.00;29395;264;63009;-53
2023/07/24 01:02:01;;;;;;;0.30;0.30;;;;;;;17.65;76.02;96159.69;29395;202;63004;-53
2023/07/24 01:02:33;;;;;;;0.30;0.30;;;;;;;17.65;76.80;96162.41;29395;211;63009;-53
2023/07/24 01:03:04;;;;;;;0.30;0.30;;;;;;;17.62;77.34;96161.16;29395;248;63004;-54
2023/07/24 01:03:37;;;;;;;0.30;0.30;;;;;;;17.62;77.35;96168.59;29395;233;63009;-54
2023/07/24 01:04:09;;;;;;;0.30;0.30;;;;;;;17.61;78.04;96164.25;29395;198;63009;-54
2023/07/24 01:04:41;;;;;;;0.30;0.30;;;;;;;17.59;78.09;96167.34;29395;229;63009;-53
2023/07/24 01:05:15;;;;;;;0.30;0.30;;;;;;;17.57;77.62;96157.88;29394;204;64005;-54
2023/07/24 01:05:46;;;;;;;0.30;0.30;;;;;;;17.55;76.11;96155.50;29394;269;64009;-54
2023/07/24 01:06:17;;;;;;;0.35;0.35;;;;;;;17.55;76.17;96157.44;29395;200;63005;-54
2023/07/24 01:06:56;;;;;;;0.40;0.40;;;;;;;17.51;75.62;96149.12;29395;208;63009;-54
2023/07/24 01:07:38;;;;;;;0.30;0.30;;;;;;;17.55;74.86;96144.53;29395;223;63009;-54
2023/07/24 01:08:09;;;;;;;0.30;0.30;;;;;;;17.57;74.39;96146.91;29395;247;63013;-54
2023/07/24 01:08:41;;;;;;;0.35;0.35;;;;;;;17.57;74.56;96139.47;29394;235;64005;-54
2023/07/24 01:09:17;;;;;;;0.30;0.30;;;;;;;17.58;74.15;96138.31;29395;202;63009;-54
2023/07/24 01:09:57;;;;;;;0.30;0.30;;;;;;;17.59;73.99;96144.59;29395;334;63004;-63
2023/07/24 01:10:30;;;;;;;0.40;0.40;;;;;;;17.59;73.72;96144.59;29395;232;63009;-54
2023/07/24 01:11:17;;;;;;;0.30;0.30;;;;;;;17.60;74.07;96140.72;29394;226;64004;-55
2023/07/24 01:11:59;;;;;;;0.40;0.40;;;;;;;17.61;75.58;96148.59;29394;298;64008;-54
2023/07/24 01:12:39;;;;;;;0.40;0.40;;;;;;;17.61;75.48;96142.31;29395;219;63005;-54
2023/07/24 01:13:19;;;;;;;0.30;0.30;;;;;;;17.61;75.10;96148.59;29439;205;63009;-54
2023/07/24 01:14:10;;;;;;;0.32;0.32;;;;;;;17.60;75.46;96140.72;29394;220;64005;-54
2023/07/24 01:14:58;;;;;;;0.40;0.40;;;;;;;17.60;74.50;96140.72;29416;343;64009;-54
2023/07/24 01:15:34;;;;;;;0.40;0.40;;;;;;;17.64;74.23;96141.59;29395;210;63008;-56
2023/07/24 01:16:13;;;;;;;0.30;0.30;;;;;;;17.67;72.61;96136.19;29395;269;63009;-61
2023/07/24 01:16:47;;;;;;;0.30;0.30;;;;;;;17.73;72.18;96133.97;29394;228;64004;-55
2023/07/24 01:17:23;;;;;;;0.30;0.30;;;;;;;17.77;71.49;96129.37;29395;266;63009;-54
2023/07/24 01:18:01;;;;;;;0.30;0.30;;;;;;;17.80;71.47;96136.87;29395;283;63000;-54
2023/07/24 01:18:36;;;;;;;0.40;0.40;;;;;;;17.78;71.14;96136.44;29395;264;63009;-54
2023/07/24 01:19:20;;;;;;;5.68;5.43;;;;;;;17.77;71.13;96139.53;29391;201;65000;-56
2023/07/24 01:20:14;;;;;;;0.30;0.30;;;;;;;17.71;71.73;96148.06;29395;212;63009;-55
2023/07/24 01:20:53;;;;;;;0.35;0.35;;;;;;;17.72;71.82;96141.41;29395;199;63005;-55
2023/07/24 01:21:38;;;;;;;0.40;0.40;;;;;;;17.72;71.34;96143.34;29394;260;64009;-54
2023/07/24 01:22:47;;;;;;;0.30;0.30;;;;;;;17.72;71.26;96132.38;29395;239;63009;-54
2023/07/24 01:23:56;;;;;;;0.32;0.32;;;;;;;17.76;71.18;96130.53;29395;220;63009;-55
2023/07/24 01:24:37;;;;;;;0.40;0.40;;;;;;;17.82;70.13;96129.09;29394;218;64004;-54
2023/07/24 01:26:11;;;;;;;0.40;0.40;;;;;;;17.87;69.09;96123.34;29417;220;63004;-56
2023/07/24 01:26:44;;;;;;;0.40;0.40;;;;;;;17.86;69.14;96121.75;29395;202;63004;-55
2023/07/24 01:27:24;;;;;;;0.30;0.30;;;;;;;17.86;68.87;96116.25;29395;202;63008;-64
2023/07/24 01:27:55;;;;;;;0.40;0.40;;;;;;;17.87;69.05;96123.34;29439;224;63005;-54
2023/07/24 01:28:27;;;;;;;0.30;0.30;;;;;;;17.85;68.58;96117.41;29395;219;63005;-54
2023/07/24 01:28:58;;;;;;;0.30;0.30;;;;;;;17.85;68.85;96120.16;29395;277;63008;-54
2023/07/24 01:29:29;;;;;;;0.30;0.30;;;;;;;17.86;68.87;96129.97;29394;260;64009;-54
2023/07/24 01:30:00;;;;;;;0.30;0.30;;;;;;;17.86;68.86;96119.00;29394;213;64005;-52
2023/07/24 01:30:32;;;;;;;0.35;0.35;;;;;;;17.86;68.83;96119.00;29395;239;63009;-55
2023/07/24 01:31:03;;;;;;;0.30;0.30;;;;;;;17.87;68.83;96126.06;29395;266;63004;-54
2023/07/24 01:31:34;;;;;;;0.40;0.40;;;;;;;17.87;68.57;96131.56;29395;213;63009;-54
2023/07/24 01:32:06;;;;;;;0.30;0.30;;;;;;;17.89;68.63;96123.78;29395;213;63004;-55
2023/07/24 01:32:39;;;;;;;0.40;0.40;;;;;;;17.90;68.16;96121.81;29395;268;63009;-54
2023/07/24 01:33:10;;;;;;;0.37;0.37;;;;;;;17.90;68.37;96130.84;29395;278;63004;-54
2023/07/24 01:33:41;;;;;;;0.40;0.40;;;;;;;17.90;68.23;96122.63;29395;210;63008;-63
2023/07/24 01:34:13;;;;;;;0.30;0.30;;;;;;;17.90;68.39;96128.09;29394;198;64004;-54
2023/07/24 01:34:44;;;;;;;0.40;0.40;;;;;;;17.88;67.92;96124.94;29395;239;63008;-54
2023/07/24 01:35:16;;;;;;;0.30;0.30;;;;;;;17.89;68.11;96128.47;29395;271;63005;-54
2023/07/24 01:35:55;;;;;;;0.30;0.30;;;;;;;17.89;67.90;96126.50;29395;251;63009;-54
2023/07/24 01:36:27;;;;;;;0.40;0.40;;;;;;;17.89;68.27;96131.22;29395;225;63005;-54
2023/07/24 01:36:59;;;;;;;0.30;0.30;;;;;;;17.87;67.88;96137.06;29395;207;63009;-63
2023/07/24 01:37:31;;;;;;;0.40;0.40;;;;;;;17.86;67.91;96132.72;29394;202;64005;-54
2023/07/24 01:38:04;;;;;;;0.30;0.30;;;;;;;17.84;68.30;96124.03;29395;259;63009;-54
2023/07/24 01:38:36;;;;;;;0.40;0.40;;;;;;;17.85;68.47;96131.13;29395;207;63004;-54
2023/07/24 01:39:09;;;;;;;0.40;0.40;;;;;;;17.88;68.08;96135.09;29395;225;63009;-66
2023/07/24 01:39:41;;;;;;;0.50;0.50;;;;;;;17.90;67.91;96133.59;29395;269;63004;-54
2023/07/24 01:40:19;;;;;;;0.30;0.30;;;;;;;17.91;67.61;96139.88;29395;204;63009;-54
2023/07/24 01:40:53;;;;;;;0.40;0.40;;;;;;;17.90;67.92;96135.53;29395;212;63004;-54
2023/07/24 01:41:25;;;;;;;0.40;0.40;;;;;;;17.89;67.69;96129.25;29395;255;63008;-55
2023/07/24 01:41:59;;;;;;;0.30;0.30;;;;;;;17.90;67.99;96130.84;29394;214;64005;-53
2023/07/24 01:42:32;;;;;;;0.30;0.30;;;;;;;17.91;67.29;96135.19;29395;253;63009;-54
2023/07/24 01:43:03;;;;;;;0.40;0.40;;;;;;;17.91;67.56;96139.88;29395;239;63005;-54
2023/07/24 01:43:35;;;;;;;0.30;0.30;;;;;;;17.92;67.54;96127.75;29394;244;64009;-54
2023/07/24 01:44:06;;;;;;;0.45;0.45;;;;;;;17.92;66.87;96136.78;29395;239;63017;-53
2023/07/24 01:44:38;;;;;;;0.32;0.32;;;;;;;17.94;66.73;96128.97;29395;211;63009;-54
2023/07/24 01:45:11;;;;;;;0.32;0.32;;;;;;;17.97;66.70;96132.97;29395;340;63005;-55
2023/07/24 01:45:42;;;;;;;0.40;0.40;;;;;;;17.99;66.61;96131.47;29395;335;63009;-53
2023/07/24 01:46:13;;;;;;;0.88;0.88;;;;;;;17.99;66.61;96131.47;29395;220;63004;-54
2023/07/24 01:46:45;;;;;;;0.30;0.30;;;;;;;17.98;66.49;96129.06;29395;246;63009;-61
2023/07/24 01:47:16;;;;;;;0.30;0.30;;;;;;;17.97;66.81;96133.75;29395;289;63004;-53
2023/07/24 01:47:47;;;;;;;0.30;0.30;;;;;;;17.96;66.65;96126.69;29395;210;63009;-53
2023/07/24 01:48:19;;;;;;;0.40;0.40;;;;;;;17.95;66.58;96136.06;29395;248;63004;-53
2023/07/24 01:48:52;;;;;;;0.30;0.30;;;;;;;17.95;66.95;96127.03;29394;312;64008;-54
2023/07/24 01:49:23;;;;;;;0.30;0.30;;;;;;;17.98;66.74;96123.56;29395;203;63005;-54
2023/07/24 01:49:55;;;;;;;0.30;0.30;;;;;;;17.98;66.22;96129.87;29394;285;64009;-66
2023/07/24 01:50:26;;;;;;;0.30;0.30;;;;;;;17.98;66.43;96135.34;29395;244;63005;-54
2023/07/24 01:50:58;;;;;;;0.40;0.40;;;;;;;17.99;65.85;96134.19;29395;211;63014;-54
2023/07/24 01:51:30;;;;;;;0.30;0.30;;;;;;;17.99;66.36;96131.47;29395;235;63005;-54
2023/07/24 01:52:02;;;;;;;0.40;0.40;;;;;;;17.98;66.19;96124.38;29395;232;63009;-54
2023/07/24 01:52:35;;;;;;;0.30;0.30;;;;;;;17.98;66.17;96129.06;29395;225;63005;-55
2023/07/24 01:53:06;;;;;;;0.40;0.40;;;;;;;18.02;65.71;96125.22;29395;202;63017;-64
2023/07/24 01:53:37;;;;;;;0.30;0.30;;;;;;;18.03;65.43;96131.50;29394;213;64004;-52
2023/07/24 01:54:09;;;;;;;0.30;0.30;;;;;;;18.06;65.46;96126.09;29395;237;63009;-52
2023/07/24 01:54:40;;;;;;;0.40;0.40;;;;;;;18.05;65.20;96123.72;29395;279;63004;-55
2023/07/24 01:55:12;;;;;;;0.37;0.37;;;;;;;18.13;64.53;96124.66;29394;203;64009;-54
2023/07/24 01:55:44;;;;;;;0.45;0.45;;;;;;;18.13;64.60;96119.16;29395;302;63004;-53
2023/07/24 01:56:15;;;;;;;0.60;0.60;;;;;;;18.17;64.31;96115.34;29395;221;63008;-52
2023/07/24 01:56:47;;;;;;;0.40;0.40;;;;;;;18.16;64.33;96121.19;29395;209;63005;-54
2023/07/24 01:57:18;;;;;;;0.40;0.40;;;;;;;18.12;64.58;96123.06;29395;264;63010;-53
2023/07/24 01:57:50;;;;;;;0.40;0.40;;;;;;;18.09;64.98;96119.88;29394;278;64005;-54
2023/07/24 01:58:22;;;;;;;0.30;0.30;;;;;;;18.06;64.72;96120.59;29395;215;63014;-54
2023/07/24 01:58:53;;;;;;;0.40;0.40;;;;;;;18.07;64.88;96113.16;29395;267;63005;-54
2023/07/24 01:59:25;;;;;;;0.40;0.40;;;;;;;18.08;64.66;96118.28;29395;233;63009;-53
2023/07/24 01:59:56;;;;;;;0.40;0.40;;;;;;;18.11;64.84;96124.22;29395;267;63005;-53
2023/07/24 02:00:28;;;;;;;0.40;0.40;;;;;;;18.09;65.01;96121.84;29394;252;64009;-53
2023/07/24 02:00:59;;;;;;;0.40;0.40;;;;;;;18.06;64.91;96120.59;29394;204;64004;-54
2023/07/24 02:01:31;;;;;;;0.40;0.40;;;;;;;18.08;64.51;96123.00;29395;217;63009;-54
2023/07/24 02:02:02;;;;;;;0.40;0.40;;;;;;;18.06;64.68;96114.31;29395;220;63004;-53
2023/07/24 02:02:33;;;;;;;0.40;0.40;;;;;;;18.04;64.50;96117.41;29395;218;63009;-54
2023/07/24 02:03:05;;;;;;;0.40;0.40;;;;;;;18.06;65.06;96119.81;29395;261;63004;-54
2023/07/24 02:03:39;;;;;;;0.40;0.40;;;;;;;18.06;64.75;96125.31;29395;257;63023;-62
2023/07/24 02:04:10;;;;;;;0.40;0.40;;;;;;;18.06;64.66;96115.13;29394;221;64004;-53
2023/07/24 02:04:41;;;;;;;0.40;0.40;;;;;;;18.05;65.04;96119.00;29395;220;63009;-54
2023/07/24 02:05:13;;;;;;;0.40;0.40;;;;;;;18.05;65.09;96119.00;29394;263;64005;-53
2023/07/24 02:05:50;;;;;;;0.40;0.40;;;;;;;18.08;64.34;96117.50;29395;224;63009;-54
2023/07/24 02:06:21;;;;;;;0.40;0.40;;;;;;;18.05;64.82;96119.00;29395;263;63005;-55
2023/07/24 02:06:53;;;;;;;0.70;0.70;;;;;;;18.04;64.40;96117.41;29395;218;63009;-54
2023/07/24 02:07:24;;;;;;;0.40;0.40;;;;;;;18.03;64.82;96124.06;29395;207;63005;-54
2023/07/24 02:07:55;;;;;;;0.40;0.40;;;;;;;18.00;64.70;96116.56;29395;264;63009;-53
2023/07/24 02:08:26;;;;;;;0.40;0.40;;;;;;;17.98;64.67;96115.34;29395;228;63004;-54
2023/07/24 02:08:57;;;;;;;0.40;0.40;;;;;;;17.98;64.72;96113.41;29395;225;63009;-54
2023/07/24 02:09:31;;;;;;;0.40;0.40;;;;;;;17.99;65.04;96112.25;29395;232;63008;-54
2023/07/24 02:10:02;;;;;;;0.40;0.40;;;;;;;18.01;64.57;96109.13;29395;219;63009;-54
2023/07/24 02:10:37;;;;;;;0.40;0.40;;;;;;;18.02;64.57;96108.75;29394;210;64004;-54
2023/07/24 02:11:09;;;;;;;0.40;0.40;;;;;;;18.01;64.63;96107.19;29395;233;63021;-55
2023/07/24 02:11:40;;;;;;;0.40;0.40;;;;;;;18.00;64.87;96108.34;29394;198;64004;-52
2023/07/24 02:12:11;;;;;;;0.40;0.40;;;;;;;18.01;64.42;96112.69;29395;213;63009;-54
2023/07/24 02:12:42;;;;;;;0.40;0.40;;;;;;;18.00;64.61;96107.53;29395;224;63005;-54
2023/07/24 02:13:13;;;;;;;0.30;0.30;;;;;;;18.00;64.78;96100.09;29395;279;63009;-54
2023/07/24 02:13:48;;;;;;;0.73;0.73;;;;;;;18.04;64.43;96106.44;29394;285;64017;-54
2023/07/24 02:14:20;;;;;;;0.40;0.40;;;;;;;18.04;64.48;96108.38;29395;231;63009;-55
2023/07/24 02:14:53;;;;;;;0.40;0.40;;;;;;;18.06;64.23;96104.13;29395;216;63018;-54
2023/07/24 02:15:24;;;;;;;0.40;0.40;;;;;;;18.05;64.26;96105.28;29394;227;64009;-54
2023/07/24 02:15:55;;;;;;;0.30;0.30;;;;;;;18.03;64.63;96099.34;29395;248;63005;-54
2023/07/24 02:16:27;;;;;;;0.40;0.40;;;;;;;18.01;64.63;96112.69;29395;228;63009;-53
2023/07/24 02:17:02;;;;;;;0.40;0.40;;;;;;;17.99;64.93;96104.00;29395;200;63011;-53
2023/07/24 02:17:34;;;;;;;0.40;0.40;;;;;;;17.97;64.95;96100.03;29395;205;63009;-54
2023/07/24 02:18:05;;;;;;;0.40;0.40;;;;;;;17.97;65.05;96094.53;29395;300;63004;-54
2023/07/24 02:18:38;;;;;;;0.40;0.40;;;;;;;17.99;64.85;96098.50;29395;220;63008;-53
2023/07/24 02:19:10;;;;;;;0.40;0.40;;;;;;;17.97;65.10;96092.59;29395;307;63008;-55
2023/07/24 02:19:41;;;;;;;0.40;0.40;;;;;;;17.98;64.67;96096.94;29395;279;63009;-53
2023/07/24 02:20:13;;;;;;;0.40;0.40;;;;;;;17.96;64.87;96093.75;29395;203;63005;-53
2023/07/24 02:20:51;;;;;;;0.40;0.40;;;;;;;17.95;65.07;96097.63;29394;292;64009;-54
2023/07/24 02:21:23;;;;;;;0.40;0.40;;;;;;;17.97;65.19;96095.34;29395;313;63005;-53
2023/07/24 02:21:55;;;;;;;0.40;0.40;;;;;;;17.96;64.70;96093.75;29395;199;63009;-54
2023/07/24 02:22:26;;;;;;;0.40;0.40;;;;;;;17.94;65.30;96093.31;29395;242;63005;-55
2023/07/24 02:22:57;;;;;;;0.40;0.40;;;;;;;17.93;65.06;96094.47;29395;226;63009;-54
2023/07/24 02:23:32;;;;;;;0.40;0.40;;;;;;;17.94;65.15;96090.56;29395;215;63005;-53
2023/07/24 02:24:04;;;;;;;0.40;0.40;;;;;;;17.96;64.47;96099.22;29395;213;63019;-54
2023/07/24 02:24:35;;;;;;;0.40;0.40;;;;;;;17.96;64.84;96090.19;29395;292;63004;-52
2023/07/24 02:25:08;;;;;;;0.35;0.35;;;;;;;18.00;64.18;96093.81;29395;336;63014;-53
2023/07/24 02:25:39;;;;;;;0.30;0.30;;;;;;;18.00;64.23;96094.62;29395;202;63004;-53
2023/07/24 02:26:11;;;;;;;0.40;0.40;;;;;;;17.99;64.54;96098.50;29394;257;64008;-53
2023/07/24 02:26:42;;;;;;;0.30;0.30;;;;;;;17.97;64.45;96092.59;29395;226;63004;-52
2023/07/24 02:27:30;;;;;;;0.40;0.40;;;;;;;17.97;64.47;96087.09;29395;207;63009;-54
2023/07/24 02:28:10;;;;;;;0.40;0.40;;;;;;;18.01;63.56;96087.97;29395;210;63005;-52
2023/07/24 02:28:41;;;;;;;0.40;0.40;;;;;;;18.03;63.74;96096.63;29395;208;63009;-53
2023/07/24 02:29:12;;;;;;;0.40;0.40;;;;;;;18.01;63.88;96093.47;29395;218;63005;-53
2023/07/24 02:29:43;;;;;;;0.40;0.40;;;;;;;18.00;63.75;96105.59;29395;224;63009;-52
2023/07/24 02:30:16;;;;;;;0.40;0.40;;;;;;;17.98;63.87;96102.41;29395;238;63005;-52
2023/07/24 02:30:48;;;;;;;0.40;0.40;;;;;;;17.98;63.41;96099.66;29395;196;63009;-51
2023/07/24 02:31:19;;;;;;;0.40;0.40;;;;;;;17.98;63.34;96102.41;29394;209;64004;-53
2023/07/24 02:31:51;;;;;;;0.40;0.40;;;;;;;17.97;63.71;96102.78;29395;202;63009;-53
2023/07/24 02:32:22;;;;;;;0.40;0.40;;;;;;;17.95;63.65;96108.63;29395;247;63004;-53
2023/07/24 02:32:57;;;;;;;1.30;1.30;;;;;;;17.94;63.83;96112.53;29394;329;64009;-52
2023/07/24 02:33:28;;;;;;;0.40;0.40;;;;;;;17.93;64.09;96105.44;29395;222;63004;-52
2023/07/24 02:33:59;;;;;;;0.40;0.40;;;;;;;17.93;64.00;96110.94;29395;229;63008;-52
2023/07/24 02:34:31;;;;;;;0.30;0.30;;;;;;;17.97;63.76;96103.56;29394;218;64016;-54
2023/07/24 02:35:02;;;;;;;0.40;0.40;;;;;;;17.99;63.71;96108.69;29394;286;64009;-52
2023/07/24 02:35:41;;;;;;;0.40;0.40;;;;;;;18.00;63.55;96111.09;29395;226;63005;-52
2023/07/24 02:36:13;;;;;;;0.40;0.40;;;;;;;18.01;63.14;96101.69;29395;209;63009;-53
2023/07/24 02:36:44;;;;;;;0.30;0.30;;;;;;;18.00;63.40;96102.84;29395;206;63005;-53
2023/07/24 02:37:15;;;;;;;0.40;0.40;;;;;;;18.02;63.27;96097.78;29395;217;63009;-53
2023/07/24 02:37:47;;;;;;;0.40;0.40;;;;;;;18.03;63.08;96096.63;29395;227;63004;-53